createdAt,value
2019-02-03T00:00:49.397Z,0
2019-02-03T00:01:57.446Z,0
2019-02-03T00:03:05.503Z,0
2019-02-03T00:04:13.564Z,0
2019-02-03T00:05:21.624Z,0
2019-02-03T00:06:29.661Z,0
2019-02-03T00:07:37.730Z,0
2019-02-03T00:08:45.778Z,0
2019-02-03T00:09:53.844Z,0
2019-02-03T00:11:01.875Z,0
2019-02-03T00:12:09.929Z,0
2019-02-03T00:13:17.998Z,0
2019-02-03T00:14:26.060Z,0
2019-02-03T00:15:34.081Z,0
2019-02-03T00:16:42.150Z,0
2019-02-03T00:17:50.208Z,0
2019-02-03T00:18:58.274Z,0
2019-02-03T00:20:06.314Z,0
2019-02-03T00:21:14.444Z,0
2019-02-03T00:22:22.443Z,0
2019-02-03T00:23:30.483Z,0
2019-02-03T00:24:38.532Z,0
2019-02-03T00:25:46.617Z,0
2019-02-03T00:26:54.646Z,0
2019-02-03T00:28:02.706Z,0
2019-02-03T00:29:10.759Z,0
2019-02-03T00:30:18.813Z,0
2019-02-03T00:31:26.873Z,0
2019-02-03T00:32:34.923Z,0
2019-02-03T00:33:42.971Z,0
2019-02-03T00:34:51.033Z,0
2019-02-03T00:35:59.098Z,0
2019-02-03T00:37:15.047Z,0
2019-02-03T00:38:21.414Z,0
2019-02-03T00:39:23.270Z,0
2019-02-03T00:40:31.323Z,0
2019-02-03T00:41:39.360Z,0
2019-02-03T00:42:47.416Z,0
2019-02-03T00:43:55.462Z,0
2019-02-03T00:45:03.560Z,0
2019-02-03T00:46:11.590Z,0
2019-02-03T00:47:19.635Z,0
2019-02-03T00:48:27.710Z,0
2019-02-03T00:49:35.751Z,0
2019-02-03T00:50:43.782Z,0
2019-02-03T00:51:51.860Z,0
2019-02-03T00:52:59.905Z,0
2019-02-03T00:54:07.960Z,0
2019-02-03T00:55:16.002Z,0
2019-02-03T00:56:24.040Z,0
2019-02-03T00:57:32.469Z,0
2019-02-03T00:58:40.175Z,0
2019-02-03T00:59:48.230Z,0
2019-02-03T01:00:56.295Z,0
2019-02-03T01:02:04.311Z,0
2019-02-03T01:03:12.390Z,0
2019-02-03T01:04:20.445Z,0
2019-02-03T01:05:28.507Z,0
2019-02-03T01:06:36.550Z,0
2019-02-03T01:07:44.586Z,0
2019-02-03T01:08:52.666Z,0
2019-02-03T01:10:00.718Z,0
2019-02-03T01:11:08.775Z,0
2019-02-03T01:12:16.825Z,0
2019-02-03T01:13:24.851Z,0
2019-02-03T01:14:32.934Z,0
2019-02-03T01:15:40.988Z,0
2019-02-03T01:16:49.056Z,0
2019-02-03T01:17:57.106Z,0
2019-02-03T01:19:05.277Z,0
2019-02-03T01:20:13.197Z,0
2019-02-03T01:21:21.254Z,0
2019-02-03T01:22:29.309Z,0
2019-02-03T01:23:37.365Z,0
2019-02-03T01:24:45.427Z,0
2019-02-03T01:25:53.483Z,0
2019-02-03T01:27:01.535Z,0
2019-02-03T01:28:09.576Z,0
2019-02-03T01:29:17.648Z,0
2019-02-03T01:30:25.692Z,0
2019-02-03T01:31:33.748Z,0
2019-02-03T01:32:41.802Z,0
2019-02-03T01:33:49.856Z,0
2019-02-03T01:34:57.914Z,0
2019-02-03T01:36:05.967Z,0
2019-02-03T01:37:13.993Z,0
2019-02-03T01:38:22.063Z,0
2019-02-03T01:39:30.120Z,0
2019-02-03T01:40:38.182Z,0
2019-02-03T01:41:46.255Z,0
2019-02-03T01:42:54.270Z,0
2019-02-03T01:44:02.338Z,0
2019-02-03T01:45:10.393Z,0
2019-02-03T01:46:18.449Z,0
2019-02-03T01:47:26.506Z,0
2019-02-03T01:48:34.531Z,0
2019-02-03T01:49:42.611Z,0
2019-02-03T01:50:50.664Z,0
2019-02-03T01:51:58.729Z,0
2019-02-03T01:53:06.780Z,0
2019-02-03T01:54:14.809Z,0
2019-02-03T01:55:22.885Z,0
2019-02-03T01:56:30.932Z,0
2019-02-03T01:57:39.005Z,0
2019-02-03T01:58:47.054Z,0
2019-02-03T01:59:55.121Z,0
2019-02-03T02:01:03.156Z,0
2019-02-03T02:02:11.208Z,0
2019-02-03T02:03:19.253Z,0
2019-02-03T02:04:27.307Z,0
2019-02-03T02:05:35.390Z,0
2019-02-03T02:06:43.479Z,0
2019-02-03T02:07:52.170Z,0
2019-02-03T02:08:59.538Z,0
2019-02-03T02:10:07.602Z,0
2019-02-03T02:11:15.649Z,0
2019-02-03T02:12:23.724Z,0
2019-02-03T02:13:31.782Z,0
2019-02-03T02:14:39.802Z,0
2019-02-03T02:15:47.867Z,0
2019-02-03T02:16:55.914Z,0
2019-02-03T02:18:03.939Z,0
2019-02-03T02:19:12.010Z,0
2019-02-03T02:20:20.095Z,0
2019-02-03T02:21:28.139Z,0
2019-02-03T02:22:36.180Z,0
2019-02-03T02:23:44.214Z,0
2019-02-03T02:24:52.298Z,0
2019-02-03T02:26:00.376Z,0
2019-02-03T02:27:08.400Z,0
2019-02-03T02:28:16.456Z,0
2019-02-03T02:29:24.486Z,0
2019-02-03T02:30:32.551Z,0
2019-02-03T02:31:40.608Z,0
2019-02-03T02:32:48.679Z,0
2019-02-03T02:33:56.737Z,0
2019-02-03T02:35:04.762Z,0
2019-02-03T02:36:12.850Z,0
2019-02-03T02:37:20.896Z,0
2019-02-03T02:38:28.961Z,0
2019-02-03T02:39:37.025Z,0
2019-02-03T02:40:45.044Z,0
2019-02-03T02:41:53.105Z,0
2019-02-03T02:43:01.169Z,0
2019-02-03T02:44:09.207Z,0
2019-02-03T02:45:17.284Z,0
2019-02-03T02:46:25.321Z,0
2019-02-03T02:47:33.379Z,0
2019-02-03T02:48:41.431Z,0
2019-02-03T02:49:49.488Z,0
2019-02-03T02:50:57.538Z,0
2019-02-03T02:52:05.603Z,0
2019-02-03T02:53:13.683Z,0
2019-02-03T02:54:21.702Z,0
2019-02-03T02:55:29.763Z,0
2019-02-03T02:56:37.800Z,0
2019-02-03T02:57:45.873Z,0
2019-02-03T02:58:53.903Z,0
2019-02-03T03:00:01.973Z,0
2019-02-03T03:01:10.018Z,0
2019-02-03T03:02:18.086Z,0
2019-02-03T03:03:26.130Z,0
2019-02-03T03:04:34.159Z,0
2019-02-03T03:05:42.251Z,0
2019-02-03T03:06:50.286Z,0
2019-02-03T03:07:58.348Z,0
2019-02-03T03:09:06.398Z,0
2019-02-03T03:10:14.437Z,0
2019-02-03T03:11:22.534Z,0
2019-02-03T03:12:30.574Z,0
2019-02-03T03:13:38.656Z,0
2019-02-03T03:14:46.688Z,0
2019-02-03T03:15:54.717Z,0
2019-02-03T03:17:02.795Z,0
2019-02-03T03:18:11.029Z,0
2019-02-03T03:19:18.901Z,0
2019-02-03T03:20:26.940Z,0
2019-02-03T03:21:35.003Z,0
2019-02-03T03:22:43.051Z,0
2019-02-03T03:23:51.118Z,0
2019-02-03T03:24:59.176Z,0
2019-02-03T03:26:07.234Z,0
2019-02-03T03:27:15.280Z,0
2019-02-03T03:28:23.343Z,0
2019-02-03T03:29:33.861Z,0
2019-02-03T03:30:39.447Z,0
2019-02-03T03:31:47.489Z,0
2019-02-03T03:32:55.620Z,0
2019-02-03T03:34:03.616Z,0
2019-02-03T03:35:11.660Z,0
2019-02-03T03:36:19.721Z,0
2019-02-03T03:37:27.780Z,0
2019-02-03T03:38:35.817Z,0
2019-02-03T03:39:43.856Z,0
2019-02-03T03:40:51.925Z,0
2019-02-03T03:41:59.993Z,0
2019-02-03T03:43:08.038Z,0
2019-02-03T03:44:16.093Z,0
2019-02-03T03:45:24.153Z,0
2019-02-03T03:46:32.230Z,0
2019-02-03T03:47:40.266Z,0
2019-02-03T03:48:48.294Z,0
2019-02-03T03:49:56.363Z,0
2019-02-03T03:51:04.402Z,0
2019-02-03T03:52:12.487Z,0
2019-02-03T03:53:20.519Z,0
2019-02-03T03:54:28.585Z,0
2019-02-03T03:55:36.644Z,0
2019-02-03T03:56:44.662Z,0
2019-02-03T03:57:52.747Z,0
2019-02-03T03:59:00.805Z,0
2019-02-03T04:00:08.849Z,0
2019-02-03T04:01:16.912Z,0
2019-02-03T04:02:24.954Z,0
2019-02-03T04:03:33.008Z,0
2019-02-03T04:04:41.063Z,0
2019-02-03T04:05:49.124Z,0
2019-02-03T04:06:57.170Z,0
2019-02-03T04:08:05.223Z,0
2019-02-03T04:09:13.416Z,0
2019-02-03T04:10:21.352Z,0
2019-02-03T04:11:29.426Z,0
2019-02-03T04:12:37.441Z,0
2019-02-03T04:13:45.487Z,0
2019-02-03T04:14:53.556Z,0
2019-02-03T04:16:01.602Z,0
2019-02-03T04:17:09.661Z,0
2019-02-03T04:18:17.732Z,0
2019-02-03T04:19:25.781Z,0
2019-02-03T04:20:33.811Z,0
2019-02-03T04:21:41.885Z,0
2019-02-03T04:22:49.933Z,0
2019-02-03T04:23:58.001Z,0
2019-02-03T04:25:06.035Z,0
2019-02-03T04:26:14.061Z,0
2019-02-03T04:27:22.151Z,0
2019-02-03T04:28:30.212Z,0
2019-02-03T04:29:38.269Z,0
2019-02-03T04:30:46.322Z,0
2019-02-03T04:31:54.351Z,0
2019-02-03T04:33:02.423Z,0
2019-02-03T04:34:10.478Z,0
2019-02-03T04:35:18.521Z,0
2019-02-03T04:36:26.581Z,0
2019-02-03T04:37:34.609Z,0
2019-02-03T04:38:42.700Z,0
2019-02-03T04:39:50.744Z,0
2019-02-03T04:40:58.800Z,0
2019-02-03T04:42:06.855Z,0
2019-02-03T04:43:14.903Z,0
2019-02-03T04:44:22.973Z,0
2019-02-03T04:45:31.033Z,0
2019-02-03T04:46:39.073Z,0
2019-02-03T04:47:47.132Z,0
2019-02-03T04:48:55.182Z,0
2019-02-03T04:50:03.251Z,0
2019-02-03T04:51:11.313Z,0
2019-02-03T04:52:19.345Z,0
2019-02-03T04:53:27.425Z,0
2019-02-03T04:54:35.459Z,0
2019-02-03T04:55:43.505Z,0
2019-02-03T04:56:51.567Z,0
2019-02-03T04:57:59.611Z,0
2019-02-03T04:59:07.688Z,0
2019-02-03T05:00:15.731Z,0
2019-02-03T05:01:23.767Z,0
2019-02-03T05:02:31.844Z,0
2019-02-03T05:03:39.896Z,0
2019-02-03T05:04:47.936Z,0
2019-02-03T05:05:56.007Z,0
2019-02-03T05:07:04.056Z,0
2019-02-03T05:08:12.107Z,0
2019-02-03T05:09:20.166Z,0
2019-02-03T05:10:28.223Z,0
2019-02-03T05:11:36.278Z,0
2019-02-03T05:12:44.304Z,0
2019-02-03T05:13:52.386Z,0
2019-02-03T05:15:00.499Z,0
2019-02-03T05:16:08.801Z,0
2019-02-03T05:17:18.909Z,0
2019-02-03T05:18:24.704Z,0
2019-02-03T05:19:33.266Z,0
2019-02-03T05:20:41.230Z,0
2019-02-03T05:21:49.413Z,0
2019-02-03T05:22:57.424Z,0
2019-02-03T05:24:05.472Z,0
2019-02-03T05:25:13.589Z,0
2019-02-03T05:26:21.557Z,0
2019-02-03T05:27:29.623Z,0
2019-02-03T05:28:37.732Z,0
2019-02-03T05:29:45.668Z,0
2019-02-03T05:30:53.854Z,0
2019-02-03T05:32:01.815Z,0
2019-02-03T05:33:10.362Z,0
2019-02-03T05:34:17.402Z,0
2019-02-03T05:35:25.456Z,0
2019-02-03T05:36:33.454Z,0
2019-02-03T05:37:41.517Z,0
2019-02-03T05:38:49.580Z,0
2019-02-03T05:39:57.633Z,0
2019-02-03T05:41:06.075Z,0
2019-02-03T05:42:13.735Z,0
2019-02-03T05:43:21.793Z,0
2019-02-03T05:44:29.871Z,0
2019-02-03T05:45:38.300Z,0
2019-02-03T05:46:46.006Z,0
2019-02-03T05:47:54.024Z,0
2019-02-03T05:49:02.313Z,0
2019-02-03T05:50:10.157Z,0
2019-02-03T05:51:18.177Z,0
2019-02-03T05:52:26.219Z,0
2019-02-03T05:53:34.259Z,0
2019-02-03T05:54:42.342Z,0
2019-02-03T05:55:50.401Z,0
2019-02-03T05:56:58.451Z,0
2019-02-03T05:58:06.519Z,0
2019-02-03T05:59:14.520Z,0
2019-02-03T06:00:22.609Z,0
2019-02-03T06:01:30.903Z,0
2019-02-03T06:02:38.723Z,0
2019-02-03T06:03:46.782Z,0
2019-02-03T06:04:54.939Z,0
2019-02-03T06:06:02.897Z,0
2019-02-03T06:07:11.421Z,0
2019-02-03T06:08:18.996Z,0
2019-02-03T06:09:36.162Z,0
2019-02-03T06:10:35.183Z,0
2019-02-03T06:11:43.164Z,0
2019-02-03T06:12:51.214Z,0
2019-02-03T06:13:59.264Z,0
2019-02-03T06:15:07.310Z,0
2019-02-03T06:16:15.377Z,0
2019-02-03T06:17:23.424Z,0
2019-02-03T06:18:31.482Z,0
2019-02-03T06:19:39.540Z,0
2019-02-03T06:20:47.576Z,0
2019-02-03T06:21:55.674Z,0
2019-02-03T06:23:03.688Z,0
2019-02-03T06:24:11.828Z,0
2019-02-03T06:25:19.812Z,0
2019-02-03T06:26:27.859Z,0
2019-02-03T06:27:35.914Z,0
2019-02-03T06:28:43.935Z,0
2019-02-03T06:29:52.035Z,0
2019-02-03T06:31:00.075Z,0
2019-02-03T06:32:08.179Z,0
2019-02-03T06:33:16.171Z,0
2019-02-03T06:34:24.259Z,0
2019-02-03T06:35:32.301Z,0
2019-02-03T06:36:40.353Z,0
2019-02-03T06:37:48.422Z,0
2019-02-03T06:38:56.466Z,0
2019-02-03T06:40:04.493Z,0
2019-02-03T06:41:12.576Z,0
2019-02-03T06:42:20.614Z,0
2019-02-03T06:43:28.675Z,0
2019-02-03T06:44:36.741Z,0
2019-02-03T06:45:44.776Z,0
2019-02-03T06:46:52.843Z,0
2019-02-03T06:48:00.903Z,0
2019-02-03T06:49:09.145Z,0
2019-02-03T06:50:17.015Z,0
2019-02-03T06:51:25.050Z,0
2019-02-03T06:52:33.105Z,0
2019-02-03T06:53:41.163Z,0
2019-02-03T06:54:49.223Z,0
2019-02-03T06:55:57.276Z,0
2019-02-03T06:57:05.319Z,0
2019-02-03T06:58:13.382Z,0
2019-02-03T06:59:21.428Z,0
2019-02-03T07:00:29.497Z,0
2019-02-03T07:01:37.557Z,5
2019-02-03T07:02:45.679Z,5
2019-02-03T07:03:53.652Z,5
2019-02-03T07:05:01.698Z,5
2019-02-03T07:06:09.755Z,5
2019-02-03T07:07:17.810Z,5
2019-02-03T07:08:25.863Z,5
2019-02-03T07:09:36.697Z,5
2019-02-03T07:10:41.985Z,5
2019-02-03T07:11:50.022Z,5
2019-02-03T07:12:58.083Z,5
2019-02-03T07:14:06.134Z,5
2019-02-03T07:15:14.163Z,10
2019-02-03T07:16:22.261Z,10
2019-02-03T07:17:30.432Z,10
2019-02-03T07:18:38.463Z,10
2019-02-03T07:19:46.409Z,10
2019-02-03T07:20:54.425Z,10
2019-02-03T07:22:02.518Z,15
2019-02-03T07:23:10.569Z,15
2019-02-03T07:24:18.622Z,15
2019-02-03T07:25:26.671Z,15
2019-02-03T07:26:34.696Z,15
2019-02-03T07:27:42.783Z,15
2019-02-03T07:28:50.838Z,15
2019-02-03T07:29:58.983Z,15
2019-02-03T07:31:06.941Z,15
2019-02-03T07:32:15.042Z,20
2019-02-03T07:33:23.064Z,20
2019-02-03T07:34:31.107Z,20
2019-02-03T07:35:39.148Z,20
2019-02-03T07:36:47.193Z,20
2019-02-03T07:37:55.263Z,20
2019-02-03T07:39:03.310Z,25
2019-02-03T07:40:12.862Z,25
2019-02-03T07:41:19.949Z,25
2019-02-03T07:42:27.639Z,25
2019-02-03T07:43:35.589Z,25
2019-02-03T07:44:43.823Z,30
2019-02-03T07:45:51.637Z,30
2019-02-03T07:46:59.685Z,30
2019-02-03T07:48:08.339Z,30
2019-02-03T07:49:15.785Z,35
2019-02-03T07:50:23.832Z,35
2019-02-03T07:51:31.905Z,35
2019-02-03T07:52:39.952Z,40
2019-02-03T07:53:48.200Z,40
2019-02-03T07:54:56.063Z,40
2019-02-03T07:56:04.098Z,40
2019-02-03T07:57:12.165Z,40
2019-02-03T07:58:20.231Z,45
2019-02-03T07:59:28.269Z,45
2019-02-03T08:00:36.347Z,45
2019-02-03T08:01:44.364Z,45
2019-02-03T08:02:52.442Z,45
2019-02-03T08:04:00.537Z,50
2019-02-03T08:05:08.557Z,50
2019-02-03T08:06:16.593Z,50
2019-02-03T08:07:24.639Z,55
2019-02-03T08:08:32.702Z,55
2019-02-03T08:09:40.770Z,55
2019-02-03T08:10:48.876Z,55
2019-02-03T08:11:56.869Z,60
2019-02-03T08:13:04.920Z,60
2019-02-03T08:14:13.609Z,60
2019-02-03T08:15:21.037Z,65
2019-02-03T08:16:29.719Z,65
2019-02-03T08:17:37.206Z,65
2019-02-03T08:18:45.195Z,70
2019-02-03T08:19:53.261Z,70
2019-02-03T08:21:01.304Z,70
2019-02-03T08:22:09.347Z,70
2019-02-03T08:23:18.068Z,70
2019-02-03T08:24:26.067Z,70
2019-02-03T08:25:33.852Z,75
2019-02-03T08:26:42.051Z,75
2019-02-03T08:27:49.832Z,80
2019-02-03T08:28:57.668Z,80
2019-02-03T08:30:05.727Z,80
2019-02-03T08:31:13.893Z,85
2019-02-03T08:32:21.842Z,85
2019-02-03T08:33:29.883Z,90
2019-02-03T08:34:37.946Z,90
2019-02-03T08:35:46.349Z,90
2019-02-03T08:36:54.031Z,90
2019-02-03T08:38:02.108Z,90
2019-02-03T08:39:10.158Z,90
2019-02-03T08:40:18.213Z,90
2019-02-03T08:41:26.276Z,90
2019-02-03T08:42:35.183Z,95
2019-02-03T08:43:42.380Z,95
2019-02-03T08:44:50.431Z,95
2019-02-03T08:45:58.483Z,100
2019-02-03T08:47:06.549Z,100
2019-02-03T08:48:14.557Z,100
2019-02-03T08:49:22.892Z,100
2019-02-03T08:50:31.345Z,100
2019-02-03T08:51:39.231Z,105
2019-02-03T08:52:46.801Z,105
2019-02-03T08:53:54.882Z,105
2019-02-03T08:55:02.923Z,105
2019-02-03T08:56:11.070Z,110
2019-02-03T08:57:19.537Z,110
2019-02-03T08:58:27.078Z,115
2019-02-03T08:59:35.144Z,115
2019-02-03T09:00:43.189Z,115
2019-02-03T09:01:51.245Z,125
2019-02-03T09:02:59.372Z,130
2019-02-03T09:04:07.752Z,130
2019-02-03T09:05:15.906Z,135
2019-02-03T09:06:24.016Z,135
2019-02-03T09:07:31.511Z,135
2019-02-03T09:08:42.351Z,135
2019-02-03T09:09:47.608Z,135
2019-02-03T09:10:55.660Z,135
2019-02-03T09:12:03.713Z,135
2019-02-03T09:13:12.350Z,135
2019-02-03T09:14:19.840Z,135
2019-02-03T09:15:27.888Z,135
2019-02-03T09:16:36.040Z,135
2019-02-03T09:17:43.962Z,140
2019-02-03T09:18:52.247Z,135
2019-02-03T09:20:00.532Z,135
2019-02-03T09:21:08.157Z,140
2019-02-03T09:22:16.225Z,140
2019-02-03T09:23:24.263Z,150
2019-02-03T09:24:33.005Z,155
2019-02-03T09:25:40.904Z,155
2019-02-03T09:26:49.203Z,165
2019-02-03T09:27:56.474Z,170
2019-02-03T09:29:04.499Z,175
2019-02-03T09:30:12.578Z,175
2019-02-03T09:31:20.690Z,175
2019-02-03T09:32:29.210Z,180
2019-02-03T09:33:36.753Z,185
2019-02-03T09:34:44.785Z,185
2019-02-03T09:35:52.858Z,185
2019-02-03T09:37:00.900Z,185
2019-02-03T09:38:09.550Z,190
2019-02-03T09:39:17.021Z,190
2019-02-03T09:40:25.083Z,195
2019-02-03T09:41:33.137Z,190
2019-02-03T09:42:41.189Z,195
2019-02-03T09:43:49.790Z,190
2019-02-03T09:44:58.342Z,190
2019-02-03T09:46:05.344Z,185
2019-02-03T09:47:13.396Z,185
2019-02-03T09:48:21.448Z,185
2019-02-03T09:49:29.505Z,185
2019-02-03T09:50:37.613Z,185
2019-02-03T09:51:45.615Z,180
2019-02-03T09:52:53.670Z,180
2019-02-03T09:54:01.720Z,180
2019-02-03T09:55:09.779Z,180
2019-02-03T09:56:17.840Z,180
2019-02-03T09:57:25.886Z,180
2019-02-03T09:58:33.931Z,180
2019-02-03T09:59:41.996Z,180
2019-02-03T10:00:50.049Z,180
2019-02-03T10:01:58.090Z,175
2019-02-03T10:03:06.163Z,180
2019-02-03T10:04:14.180Z,185
2019-02-03T10:05:22.269Z,185
2019-02-03T10:06:30.325Z,185
2019-02-03T10:07:38.392Z,185
2019-02-03T10:08:46.458Z,185
2019-02-03T10:09:54.473Z,185
2019-02-03T10:11:11.501Z,185
2019-02-03T10:12:10.621Z,185
2019-02-03T10:13:18.666Z,185
2019-02-03T10:14:26.721Z,185
2019-02-03T10:15:34.752Z,185
2019-02-03T10:16:42.846Z,185
2019-02-03T10:17:50.892Z,185
2019-02-03T10:18:58.945Z,185
2019-02-03T10:20:07.007Z,190
2019-02-03T10:21:15.096Z,190
2019-02-03T10:22:23.113Z,190
2019-02-03T10:23:31.169Z,185
2019-02-03T10:24:42.083Z,185
2019-02-03T10:25:47.273Z,185
2019-02-03T10:26:55.332Z,185
2019-02-03T10:28:03.381Z,185
2019-02-03T10:29:11.440Z,190
2019-02-03T10:30:19.489Z,195
2019-02-03T10:31:27.542Z,195
2019-02-03T10:32:35.586Z,200
2019-02-03T10:33:43.673Z,205
2019-02-03T10:34:51.716Z,210
2019-02-03T10:35:59.769Z,210
2019-02-03T10:37:07.809Z,210
2019-02-03T10:38:15.875Z,210
2019-02-03T10:39:23.910Z,210
2019-02-03T10:40:31.981Z,215
2019-02-03T10:41:40.035Z,210
2019-02-03T10:42:48.104Z,210
2019-02-03T10:43:56.543Z,210
2019-02-03T10:45:04.165Z,210
2019-02-03T10:46:12.253Z,210
2019-02-03T10:47:20.299Z,205
2019-02-03T10:48:28.367Z,200
2019-02-03T10:49:36.451Z,195
2019-02-03T10:50:44.435Z,195
2019-02-03T10:51:52.530Z,195
2019-02-03T10:53:00.591Z,195
2019-02-03T10:54:08.628Z,195
2019-02-03T10:55:16.675Z,200
2019-02-03T10:56:24.712Z,195
2019-02-03T10:57:32.781Z,190
2019-02-03T10:58:40.840Z,190
2019-02-03T10:59:48.904Z,190
2019-02-03T11:00:56.954Z,190
2019-02-03T11:02:05.005Z,190
2019-02-03T11:03:13.103Z,190
2019-02-03T11:04:21.118Z,190
2019-02-03T11:05:29.184Z,190
2019-02-03T11:06:37.251Z,190
2019-02-03T11:07:45.283Z,190
2019-02-03T11:08:53.333Z,200
2019-02-03T11:10:01.371Z,215
2019-02-03T11:11:09.451Z,220
2019-02-03T11:12:17.485Z,230
2019-02-03T11:13:25.555Z,225
2019-02-03T11:14:33.599Z,230
2019-02-03T11:15:41.663Z,235
2019-02-03T11:16:49.699Z,240
2019-02-03T11:17:57.765Z,250
2019-02-03T11:19:05.828Z,255
2019-02-03T11:20:13.867Z,255
2019-02-03T11:21:21.938Z,250
2019-02-03T11:22:29.986Z,260
2019-02-03T11:23:38.035Z,265
2019-02-03T11:24:46.096Z,265
2019-02-03T11:25:54.120Z,265
2019-02-03T11:27:02.201Z,265
2019-02-03T11:28:10.251Z,265
2019-02-03T11:29:18.308Z,265
2019-02-03T11:30:26.367Z,265
2019-02-03T11:31:34.394Z,265
2019-02-03T11:32:42.476Z,230
2019-02-03T11:33:50.540Z,250
2019-02-03T11:34:58.585Z,205
2019-02-03T11:36:06.634Z,215
2019-02-03T11:37:14.662Z,240
2019-02-03T11:38:22.751Z,220
2019-02-03T11:39:30.787Z,245
2019-02-03T11:40:38.851Z,210
2019-02-03T11:41:48.903Z,260
2019-02-03T11:42:54.952Z,250
2019-02-03T11:44:03.009Z,240
2019-02-03T11:45:11.081Z,250
2019-02-03T11:46:19.118Z,250
2019-02-03T11:47:27.181Z,215
2019-02-03T11:48:35.222Z,225
2019-02-03T11:49:43.284Z,255
2019-02-03T11:50:51.343Z,225
2019-02-03T11:51:59.396Z,235
2019-02-03T11:53:07.459Z,230
2019-02-03T11:54:15.513Z,215
2019-02-03T11:55:23.565Z,225
2019-02-03T11:56:31.626Z,235
2019-02-03T11:57:39.710Z,210
2019-02-03T11:58:47.801Z,210
2019-02-03T11:59:55.780Z,205
2019-02-03T12:01:03.837Z,185
2019-02-03T12:02:11.887Z,170
2019-02-03T12:03:19.935Z,190
2019-02-03T12:04:27.991Z,195
2019-02-03T12:05:36.064Z,200
2019-02-03T12:06:44.074Z,220
2019-02-03T12:07:52.159Z,225
2019-02-03T12:09:00.185Z,185
2019-02-03T12:10:08.282Z,210
2019-02-03T12:11:16.352Z,220
2019-02-03T12:12:24.358Z,225
2019-02-03T12:13:32.466Z,205
2019-02-03T12:14:40.482Z,185
2019-02-03T12:15:48.533Z,175
2019-02-03T12:16:56.587Z,170
2019-02-03T12:18:04.622Z,155
2019-02-03T12:19:12.699Z,150
2019-02-03T12:20:20.753Z,155
2019-02-03T12:21:30.142Z,150
2019-02-03T12:22:36.862Z,140
2019-02-03T12:23:44.917Z,130
2019-02-03T12:24:52.968Z,180
2019-02-03T12:26:01.020Z,175
2019-02-03T12:27:09.073Z,155
2019-02-03T12:28:17.141Z,185
2019-02-03T12:29:25.183Z,180
2019-02-03T12:30:33.246Z,185
2019-02-03T12:31:41.294Z,180
2019-02-03T12:32:49.469Z,195
2019-02-03T12:33:57.397Z,205
2019-02-03T12:35:05.460Z,250
2019-02-03T12:36:13.513Z,245
2019-02-03T12:37:21.570Z,235
2019-02-03T12:38:29.631Z,230
2019-02-03T12:39:37.688Z,225
2019-02-03T12:40:45.747Z,235
2019-02-03T12:41:53.777Z,230
2019-02-03T12:43:01.840Z,230
2019-02-03T12:44:09.881Z,220
2019-02-03T12:45:17.938Z,220
2019-02-03T12:46:25.997Z,210
2019-02-03T12:47:34.032Z,235
2019-02-03T12:48:42.105Z,235
2019-02-03T12:49:50.166Z,230
2019-02-03T12:50:58.223Z,230
2019-02-03T12:52:06.276Z,220
2019-02-03T12:53:14.299Z,240
2019-02-03T12:54:22.376Z,230
2019-02-03T12:55:30.459Z,220
2019-02-03T12:56:38.489Z,215
2019-02-03T12:57:46.847Z,205
2019-02-03T12:58:54.570Z,205
2019-02-03T13:00:02.664Z,205
2019-02-03T13:01:10.700Z,195
2019-02-03T13:02:18.766Z,200
2019-02-03T13:03:26.829Z,220
2019-02-03T13:04:34.876Z,220
2019-02-03T13:05:42.936Z,215
2019-02-03T13:06:50.974Z,230
2019-02-03T13:07:59.033Z,210
2019-02-03T13:09:07.852Z,190
2019-02-03T13:10:16.530Z,175
2019-02-03T13:11:23.193Z,180
2019-02-03T13:12:31.276Z,190
2019-02-03T13:13:39.323Z,175
2019-02-03T13:14:47.364Z,175
2019-02-03T13:15:55.482Z,160
2019-02-03T13:17:03.463Z,160
2019-02-03T13:18:11.551Z,155
2019-02-03T13:19:19.587Z,175
2019-02-03T13:20:27.635Z,155
2019-02-03T13:21:35.686Z,155
2019-02-03T13:22:43.743Z,185
2019-02-03T13:23:51.791Z,165
2019-02-03T13:24:59.860Z,145
2019-02-03T13:26:07.892Z,115
2019-02-03T13:27:15.976Z,110
2019-02-03T13:28:23.983Z,95
2019-02-03T13:29:32.071Z,90
2019-02-03T13:30:40.226Z,95
2019-02-03T13:31:48.162Z,90
2019-02-03T13:32:56.236Z,105
2019-02-03T13:34:04.289Z,95
2019-02-03T13:35:12.337Z,85
2019-02-03T13:36:20.394Z,85
2019-02-03T13:37:28.436Z,90
2019-02-03T13:38:36.489Z,95
2019-02-03T13:39:44.530Z,90
2019-02-03T13:40:52.615Z,85
2019-02-03T13:42:00.665Z,80
2019-02-03T13:43:08.709Z,80
2019-02-03T13:44:16.758Z,80
2019-02-03T13:45:24.802Z,70
2019-02-03T13:46:32.915Z,75
2019-02-03T13:47:40.951Z,75
2019-02-03T13:48:48.982Z,70
2019-02-03T13:49:57.047Z,70
2019-02-03T13:51:05.089Z,70
2019-02-03T13:52:13.152Z,70
2019-02-03T13:53:21.195Z,75
2019-02-03T13:54:29.275Z,75
2019-02-03T13:55:37.294Z,70
2019-02-03T13:56:45.359Z,65
2019-02-03T13:57:53.413Z,65
2019-02-03T13:59:01.583Z,70
2019-02-03T14:00:09.527Z,70
2019-02-03T14:01:17.568Z,65
2019-02-03T14:02:25.622Z,60
2019-02-03T14:03:33.680Z,55
2019-02-03T14:04:41.739Z,60
2019-02-03T14:05:49.786Z,65
2019-02-03T14:06:57.834Z,70
2019-02-03T14:08:05.890Z,80
2019-02-03T14:09:13.933Z,80
2019-02-03T14:10:21.993Z,85
2019-02-03T14:11:30.054Z,85
2019-02-03T14:12:48.602Z,100
2019-02-03T14:13:46.169Z,100
2019-02-03T14:14:54.226Z,90
2019-02-03T14:16:02.266Z,90
2019-02-03T14:17:10.319Z,95
2019-02-03T14:18:18.370Z,100
2019-02-03T14:19:26.423Z,80
2019-02-03T14:20:34.461Z,80
2019-02-03T14:21:42.535Z,85
2019-02-03T14:22:50.578Z,85
2019-02-03T14:23:58.652Z,80
2019-02-03T14:25:06.684Z,85
2019-02-03T14:26:14.738Z,75
2019-02-03T14:27:22.789Z,70
2019-02-03T14:28:30.846Z,70
2019-02-03T14:29:38.905Z,65
2019-02-03T14:30:46.972Z,60
2019-02-03T14:31:54.993Z,55
2019-02-03T14:33:03.072Z,60
2019-02-03T14:34:11.122Z,60
2019-02-03T14:35:19.174Z,60
2019-02-03T14:36:27.237Z,55
2019-02-03T14:37:35.293Z,55
2019-02-03T14:38:43.335Z,55
2019-02-03T14:39:51.380Z,55
2019-02-03T14:40:59.469Z,55
2019-02-03T14:42:09.849Z,55
2019-02-03T14:43:15.553Z,50
2019-02-03T14:44:23.609Z,50
2019-02-03T14:45:31.648Z,50
2019-02-03T14:46:39.699Z,60
2019-02-03T14:47:49.707Z,60
2019-02-03T14:48:55.825Z,70
2019-02-03T14:50:03.862Z,75
2019-02-03T14:51:11.916Z,75
2019-02-03T14:52:19.983Z,80
2019-02-03T14:53:28.032Z,75
2019-02-03T14:54:36.067Z,80
2019-02-03T14:55:44.104Z,75
2019-02-03T14:56:52.191Z,70
2019-02-03T14:58:00.244Z,70
2019-02-03T14:59:08.289Z,70
2019-02-03T15:00:16.342Z,70
2019-02-03T15:01:24.371Z,75
2019-02-03T15:02:32.450Z,75
2019-02-03T15:03:40.489Z,80
2019-02-03T15:04:48.556Z,80
2019-02-03T15:05:56.586Z,75
2019-02-03T15:07:04.648Z,70
2019-02-03T15:08:12.725Z,75
2019-02-03T15:09:21.962Z,75
2019-02-03T15:10:30.286Z,80
2019-02-03T15:11:36.876Z,75
2019-02-03T15:12:44.921Z,80
2019-02-03T15:13:52.978Z,75
2019-02-03T15:15:01.036Z,75
2019-02-03T15:16:09.094Z,75
2019-02-03T15:17:17.151Z,70
2019-02-03T15:18:25.185Z,65
2019-02-03T15:19:33.266Z,65
2019-02-03T15:20:41.323Z,60
2019-02-03T15:21:49.355Z,60
2019-02-03T15:22:57.400Z,55
2019-02-03T15:24:15.843Z,50
2019-02-03T15:25:13.520Z,45
2019-02-03T15:26:21.567Z,40
2019-02-03T15:27:29.620Z,40
2019-02-03T15:28:37.677Z,35
2019-02-03T15:29:45.714Z,35
2019-02-03T15:30:53.779Z,40
2019-02-03T15:32:01.847Z,40
2019-02-03T15:33:09.887Z,35
2019-02-03T15:34:17.956Z,35
2019-02-03T15:35:25.991Z,40
2019-02-03T15:36:34.013Z,40
2019-02-03T15:37:42.090Z,40
2019-02-03T15:38:50.170Z,35
2019-02-03T15:39:58.256Z,35
2019-02-03T15:41:06.260Z,35
2019-02-03T15:42:14.284Z,35
2019-02-03T15:43:25.268Z,35
2019-02-03T15:44:30.415Z,30
2019-02-03T15:45:38.595Z,30
2019-02-03T15:46:46.536Z,30
2019-02-03T15:47:54.552Z,30
2019-02-03T15:49:02.631Z,30
2019-02-03T15:50:10.681Z,30
2019-02-03T15:51:18.736Z,30
2019-02-03T15:52:26.798Z,30
2019-02-03T15:53:34.833Z,30
2019-02-03T15:54:42.921Z,25
2019-02-03T15:55:50.935Z,25
2019-02-03T15:56:58.998Z,25
2019-02-03T15:58:07.055Z,25
2019-02-03T15:59:15.090Z,20
2019-02-03T16:00:23.257Z,20
2019-02-03T16:01:31.838Z,20
2019-02-03T16:02:39.257Z,20
2019-02-03T16:03:47.328Z,20
2019-02-03T16:04:55.369Z,20
2019-02-03T16:06:03.437Z,15
2019-02-03T16:07:11.488Z,15
2019-02-03T16:08:19.566Z,15
2019-02-03T16:09:27.587Z,15
2019-02-03T16:10:35.654Z,15
2019-02-03T16:11:43.710Z,15
2019-02-03T16:12:51.758Z,15
2019-02-03T16:13:59.807Z,10
2019-02-03T16:15:07.863Z,10
2019-02-03T16:16:15.906Z,10